sensor_id;sensor_type;location;lat;lon;timestamp;P1;durP1;ratioP1;P2;durP2;ratioP2
4527;SDS011;62320;51.520;6.818;2022-08-01T00:00:43;11.50;;;8.82;;
4527;SDS011;62320;51.520;6.818;2022-08-01T00:05:44;12.07;;;9.27;;
4527;SDS011;62320;51.520;6.818;2022-08-01T00:10:46;15.30;;;9.23;;
4527;SDS011;62320;51.520;6.818;2022-08-01T00:15:47;11.73;;;8.98;;
4527;SDS011;62320;51.520;6.818;2022-08-01T00:20:54;13.48;;;9.18;;
4527;SDS011;62320;51.520;6.818;2022-08-01T00:25:56;12.18;;;9.05;;
4527;SDS011;62320;51.520;6.818;2022-08-01T00:30:58;12.77;;;9.43;;
4527;SDS011;62320;51.520;6.818;2022-08-01T00:35:59;12.70;;;9.35;;
4527;SDS011;62320;51.520;6.818;2022-08-01T00:41:01;12.55;;;9.93;;
4527;SDS011;62320;51.520;6.818;2022-08-01T00:46:02;13.73;;;9.70;;
4527;SDS011;62320;51.520;6.818;2022-08-01T00:51:04;14.40;;;10.60;;
4527;SDS011;62320;51.520;6.818;2022-08-01T00:56:05;15.20;;;10.02;;
4527;SDS011;62320;51.520;6.818;2022-08-01T01:01:08;12.77;;;9.90;;
4527;SDS011;62320;51.520;6.818;2022-08-01T01:06:33;16.80;;;9.77;;
4527;SDS011;62320;51.520;6.818;2022-08-01T01:11:44;16.90;;;10.30;;
4527;SDS011;62320;51.520;6.818;2022-08-01T01:16:53;17.67;;;10.57;;
4527;SDS011;62320;51.520;6.818;2022-08-01T01:22:14;15.10;;;10.35;;
4527;SDS011;62320;51.520;6.818;2022-08-01T01:27:36;15.38;;;9.65;;
4527;SDS011;62320;51.520;6.818;2022-08-01T01:32:47;16.08;;;10.38;;
4527;SDS011;62320;51.520;6.818;2022-08-01T01:37:53;14.70;;;9.95;;
4527;SDS011;62320;51.520;6.818;2022-08-01T01:43:02;15.80;;;9.70;;
4527;SDS011;62320;51.520;6.818;2022-08-01T01:48:04;13.20;;;9.10;;
4527;SDS011;62320;51.520;6.818;2022-08-01T01:53:07;14.27;;;10.00;;
4527;SDS011;62320;51.520;6.818;2022-08-01T01:58:15;15.85;;;9.60;;
4527;SDS011;62320;51.520;6.818;2022-08-01T02:03:19;16.55;;;10.07;;
4527;SDS011;62320;51.520;6.818;2022-08-01T02:08:22;20.90;;;10.95;;
4527;SDS011;62320;51.520;6.818;2022-08-01T02:13:25;16.95;;;10.15;;
4527;SDS011;62320;51.520;6.818;2022-08-01T02:18:27;18.42;;;11.27;;
4527;SDS011;62320;51.520;6.818;2022-08-01T02:23:31;17.85;;;10.75;;
4527;SDS011;62320;51.520;6.818;2022-08-01T02:28:41;18.70;;;10.65;;
4527;SDS011;62320;51.520;6.818;2022-08-01T02:33:50;18.55;;;10.73;;
4527;SDS011;62320;51.520;6.818;2022-08-01T02:38:58;18.45;;;11.07;;
4527;SDS011;62320;51.520;6.818;2022-08-01T02:44:03;20.85;;;12.35;;
4527;SDS011;62320;51.520;6.818;2022-08-01T02:49:08;18.98;;;13.02;;
4527;SDS011;62320;51.520;6.818;2022-08-01T02:54:12;16.13;;;10.75;;
4527;SDS011;62320;51.520;6.818;2022-08-01T02:59:19;16.98;;;10.45;;
4527;SDS011;62320;51.520;6.818;2022-08-01T03:04:26;15.45;;;10.13;;
4527;SDS011;62320;51.520;6.818;2022-08-01T03:09:29;18.70;;;10.63;;
4527;SDS011;62320;51.520;6.818;2022-08-01T03:14:34;20.10;;;11.38;;
4527;SDS011;62320;51.520;6.818;2022-08-01T03:19:38;20.95;;;12.68;;
4527;SDS011;62320;51.520;6.818;2022-08-01T03:24:40;22.73;;;14.20;;
4527;SDS011;62320;51.520;6.818;2022-08-01T03:29:43;19.98;;;11.80;;
4527;SDS011;62320;51.520;6.818;2022-08-01T03:34:46;19.33;;;12.20;;
4527;SDS011;62320;51.520;6.818;2022-08-01T03:39:49;19.83;;;10.43;;
4527;SDS011;62320;51.520;6.818;2022-08-01T03:44:57;17.88;;;10.90;;
4527;SDS011;62320;51.520;6.818;2022-08-01T03:50:04;15.60;;;9.43;;
4527;SDS011;62320;51.520;6.818;2022-08-01T03:55:12;15.02;;;9.52;;
4527;SDS011;62320;51.520;6.818;2022-08-01T04:00:17;15.50;;;8.48;;
4527;SDS011;62320;51.520;6.818;2022-08-01T04:05:19;16.35;;;8.85;;
4527;SDS011;62320;51.520;6.818;2022-08-01T04:10:21;14.15;;;8.90;;
4527;SDS011;62320;51.520;6.818;2022-08-01T04:15:24;14.18;;;8.35;;
4527;SDS011;62320;51.520;6.818;2022-08-01T04:20:25;16.35;;;8.85;;
4527;SDS011;62320;51.520;6.818;2022-08-01T04:25:32;15.25;;;8.93;;
4527;SDS011;62320;51.520;6.818;2022-08-01T04:30:36;13.95;;;8.65;;
4527;SDS011;62320;51.520;6.818;2022-08-01T04:35:41;14.80;;;9.23;;
4527;SDS011;62320;51.520;6.818;2022-08-01T04:41:04;14.43;;;8.57;;
4527;SDS011;62320;51.520;6.818;2022-08-01T04:46:10;15.88;;;8.98;;
4527;SDS011;62320;51.520;6.818;2022-08-01T04:51:16;16.77;;;10.63;;
4527;SDS011;62320;51.520;6.818;2022-08-01T04:56:19;16.65;;;9.68;;
4527;SDS011;62320;51.520;6.818;2022-08-01T05:01:21;19.42;;;10.52;;
4527;SDS011;62320;51.520;6.818;2022-08-01T05:06:23;18.35;;;9.90;;
4527;SDS011;62320;51.520;6.818;2022-08-01T05:11:24;18.00;;;9.82;;
4527;SDS011;62320;51.520;6.818;2022-08-01T05:16:26;17.20;;;9.70;;
4527;SDS011;62320;51.520;6.818;2022-08-01T05:21:27;16.70;;;9.07;;
4527;SDS011;62320;51.520;6.818;2022-08-01T05:26:29;15.38;;;9.20;;
4527;SDS011;62320;51.520;6.818;2022-08-01T05:31:32;14.18;;;8.45;;
4527;SDS011;62320;51.520;6.818;2022-08-01T05:36:35;10.55;;;6.97;;
4527;SDS011;62320;51.520;6.818;2022-08-01T05:41:38;12.02;;;6.80;;
4527;SDS011;62320;51.520;6.818;2022-08-01T05:46:40;13.60;;;7.18;;
4527;SDS011;62320;51.520;6.818;2022-08-01T05:51:42;10.70;;;7.30;;
4527;SDS011;62320;51.520;6.818;2022-08-01T05:56:43;11.00;;;7.13;;
4527;SDS011;62320;51.520;6.818;2022-08-01T06:01:45;10.77;;;6.97;;
4527;SDS011;62320;51.520;6.818;2022-08-01T06:06:47;10.50;;;6.68;;
4527;SDS011;62320;51.520;6.818;2022-08-01T06:11:48;12.65;;;6.70;;
4527;SDS011;62320;51.520;6.818;2022-08-01T06:16:50;11.00;;;5.97;;
4527;SDS011;62320;51.520;6.818;2022-08-01T06:21:51;9.05;;;5.90;;
4527;SDS011;62320;51.520;6.818;2022-08-01T06:26:52;11.45;;;6.55;;
4527;SDS011;62320;51.520;6.818;2022-08-01T06:31:54;10.10;;;6.00;;
4527;SDS011;62320;51.520;6.818;2022-08-01T06:36:55;11.35;;;6.57;;
4527;SDS011;62320;51.520;6.818;2022-08-01T06:41:57;10.70;;;5.50;;
4527;SDS011;62320;51.520;6.818;2022-08-01T06:46:58;10.90;;;5.63;;
4527;SDS011;62320;51.520;6.818;2022-08-01T06:52:00;8.45;;;5.13;;
4527;SDS011;62320;51.520;6.818;2022-08-01T06:57:04;10.70;;;6.03;;
4527;SDS011;62320;51.520;6.818;2022-08-01T07:02:06;10.27;;;5.57;;
4527;SDS011;62320;51.520;6.818;2022-08-01T07:07:09;7.97;;;5.30;;
4527;SDS011;62320;51.520;6.818;2022-08-01T07:12:10;6.70;;;4.43;;
4527;SDS011;62320;51.520;6.818;2022-08-01T07:17:12;5.85;;;3.88;;
4527;SDS011;62320;51.520;6.818;2022-08-01T07:22:13;5.75;;;3.58;;
4527;SDS011;62320;51.520;6.818;2022-08-01T07:27:23;4.20;;;3.10;;
4527;SDS011;62320;51.520;6.818;2022-08-01T07:32:26;7.30;;;3.65;;
4527;SDS011;62320;51.520;6.818;2022-08-01T07:37:28;6.65;;;4.10;;
4527;SDS011;62320;51.520;6.818;2022-08-01T07:42:49;5.03;;;3.15;;
4527;SDS011;62320;51.520;6.818;2022-08-01T07:47:51;3.92;;;2.35;;
4527;SDS011;62320;51.520;6.818;2022-08-01T07:52:52;3.53;;;2.38;;
4527;SDS011;62320;51.520;6.818;2022-08-01T07:57:53;5.57;;;3.35;;
4527;SDS011;62320;51.520;6.818;2022-08-01T08:02:55;7.50;;;4.90;;
4527;SDS011;62320;51.520;6.818;2022-08-01T08:07:59;8.70;;;6.40;;
4527;SDS011;62320;51.520;6.818;2022-08-01T08:13:01;6.95;;;4.78;;
4527;SDS011;62320;51.520;6.818;2022-08-01T08:18:03;4.97;;;2.90;;
4527;SDS011;62320;51.520;6.818;2022-08-01T08:23:05;3.70;;;2.42;;
4527;SDS011;62320;51.520;6.818;2022-08-01T08:28:43;2.72;;;1.75;;
4527;SDS011;62320;51.520;6.818;2022-08-01T08:33:44;2.88;;;1.67;;
4527;SDS011;62320;51.520;6.818;2022-08-01T08:38:46;2.00;;;1.60;;
4527;SDS011;62320;51.520;6.818;2022-08-01T08:43:47;2.28;;;1.65;;
4527;SDS011;62320;51.520;6.818;2022-08-01T08:48:49;3.90;;;2.00;;
4527;SDS011;62320;51.520;6.818;2022-08-01T08:53:55;4.68;;;1.90;;
4527;SDS011;62320;51.520;6.818;2022-08-01T08:58:58;3.50;;;1.60;;
4527;SDS011;62320;51.520;6.818;2022-08-01T09:03:59;2.47;;;1.55;;
4527;SDS011;62320;51.520;6.818;2022-08-01T09:09:01;3.42;;;2.30;;
4527;SDS011;62320;51.520;6.818;2022-08-01T09:19:07;2.42;;;1.60;;
4527;SDS011;62320;51.520;6.818;2022-08-01T09:24:29;2.38;;;1.50;;
4527;SDS011;62320;51.520;6.818;2022-08-01T09:29:32;2.15;;;1.52;;
4527;SDS011;62320;51.520;6.818;2022-08-01T09:34:41;5.35;;;2.15;;
4527;SDS011;62320;51.520;6.818;2022-08-01T09:39:43;1.90;;;1.60;;
4527;SDS011;62320;51.520;6.818;2022-08-01T09:44:46;1.98;;;1.23;;
4527;SDS011;62320;51.520;6.818;2022-08-01T09:49:56;1.73;;;0.98;;
4527;SDS011;62320;51.520;6.818;2022-08-01T09:55:03;2.17;;;1.00;;
4527;SDS011;62320;51.520;6.818;2022-08-01T10:00:16;2.08;;;0.85;;
4527;SDS011;62320;51.520;6.818;2022-08-01T10:05:38;1.40;;;0.60;;
4527;SDS011;62320;51.520;6.818;2022-08-01T10:11:04;1.90;;;0.80;;
4527;SDS011;62320;51.520;6.818;2022-08-01T10:16:12;5.75;;;0.70;;
4527;SDS011;62320;51.520;6.818;2022-08-01T10:21:16;0.45;;;0.43;;
4527;SDS011;62320;51.520;6.818;2022-08-01T10:26:39;0.30;;;0.30;;
4527;SDS011;62320;51.520;6.818;2022-08-01T10:31:41;0.40;;;0.40;;
4527;SDS011;62320;51.520;6.818;2022-08-01T10:36:50;0.30;;;0.30;;
4527;SDS011;62320;51.520;6.818;2022-08-01T10:41:54;0.35;;;0.35;;
4527;SDS011;62320;51.520;6.818;2022-08-01T10:46:57;0.70;;;0.40;;
4527;SDS011;62320;51.520;6.818;2022-08-01T10:52:19;0.50;;;0.50;;
4527;SDS011;62320;51.520;6.818;2022-08-01T10:57:22;0.40;;;0.40;;
4527;SDS011;62320;51.520;6.818;2022-08-01T11:02:28;0.90;;;0.40;;
4527;SDS011;62320;51.520;6.818;2022-08-01T11:07:39;0.93;;;0.50;;
4527;SDS011;62320;51.520;6.818;2022-08-01T11:12:47;0.70;;;0.60;;
4527;SDS011;62320;51.520;6.818;2022-08-01T11:17:49;1.55;;;0.60;;
4527;SDS011;62320;51.520;6.818;2022-08-01T11:49:24;0.45;;;0.45;;
4527;SDS011;62320;51.520;6.818;2022-08-01T11:54:30;1.98;;;0.77;;
4527;SDS011;62320;51.520;6.818;2022-08-01T11:59:37;0.88;;;0.80;;
4527;SDS011;62320;51.520;6.818;2022-08-01T12:05:01;1.90;;;0.80;;
4527;SDS011;62320;51.520;6.818;2022-08-01T12:15:18;0.75;;;0.75;;
4527;SDS011;62320;51.520;6.818;2022-08-01T12:20:21;1.50;;;0.90;;
4527;SDS011;62320;51.520;6.818;2022-08-01T12:25:24;1.00;;;0.90;;
4527;SDS011;62320;51.520;6.818;2022-08-01T12:30:26;2.20;;;0.80;;
4527;SDS011;62320;51.520;6.818;2022-08-01T12:35:28;1.23;;;0.85;;
4527;SDS011;62320;51.520;6.818;2022-08-01T12:40:35;1.30;;;1.20;;
4527;SDS011;62320;51.520;6.818;2022-08-01T12:45:45;1.40;;;0.80;;
4527;SDS011;62320;51.520;6.818;2022-08-01T12:50:58;1.23;;;1.00;;
4527;SDS011;62320;51.520;6.818;2022-08-01T12:56:02;1.63;;;0.88;;
4527;SDS011;62320;51.520;6.818;2022-08-01T13:01:10;2.17;;;1.23;;
4527;SDS011;62320;51.520;6.818;2022-08-01T13:06:14;3.08;;;1.02;;
4527;SDS011;62320;51.520;6.818;2022-08-01T13:23:19;1.90;;;1.10;;
4527;SDS011;62320;51.520;6.818;2022-08-01T13:28:41;2.13;;;1.20;;
4527;SDS011;62320;51.520;6.818;2022-08-01T13:33:46;2.25;;;1.40;;
4527;SDS011;62320;51.520;6.818;2022-08-01T13:39:00;2.67;;;1.40;;
4527;SDS011;62320;51.520;6.818;2022-08-01T13:44:20;2.25;;;1.50;;
4527;SDS011;62320;51.520;6.818;2022-08-01T13:49:22;1.83;;;1.30;;
4527;SDS011;62320;51.520;6.818;2022-08-01T13:54:23;3.20;;;1.63;;
4527;SDS011;62320;51.520;6.818;2022-08-01T13:59:25;1.80;;;1.58;;
4527;SDS011;62320;51.520;6.818;2022-08-01T14:04:27;3.65;;;1.45;;
4527;SDS011;62320;51.520;6.818;2022-08-01T14:09:28;1.65;;;1.15;;
4527;SDS011;62320;51.520;6.818;2022-08-01T14:14:32;2.35;;;1.60;;
4527;SDS011;62320;51.520;6.818;2022-08-01T14:19:34;4.28;;;2.00;;
4527;SDS011;62320;51.520;6.818;2022-08-01T14:24:39;4.28;;;1.90;;
4527;SDS011;62320;51.520;6.818;2022-08-01T14:29:41;2.28;;;1.40;;
4527;SDS011;62320;51.520;6.818;2022-08-01T14:35:04;2.67;;;1.60;;
4527;SDS011;62320;51.520;6.818;2022-08-01T14:40:06;2.42;;;1.63;;
4527;SDS011;62320;51.520;6.818;2022-08-01T14:45:12;3.95;;;1.70;;
4527;SDS011;62320;51.520;6.818;2022-08-01T14:50:14;2.65;;;1.60;;
4527;SDS011;62320;51.520;6.818;2022-08-01T14:55:16;3.97;;;1.48;;
4527;SDS011;62320;51.520;6.818;2022-08-01T15:00:19;2.03;;;1.20;;
4527;SDS011;62320;51.520;6.818;2022-08-01T15:05:21;2.88;;;1.30;;
4527;SDS011;62320;51.520;6.818;2022-08-01T15:10:23;2.55;;;1.30;;
4527;SDS011;62320;51.520;6.818;2022-08-01T15:15:25;2.42;;;1.10;;
4527;SDS011;62320;51.520;6.818;2022-08-01T15:20:27;1.88;;;1.10;;
4527;SDS011;62320;51.520;6.818;2022-08-01T15:25:29;1.63;;;1.00;;
4527;SDS011;62320;51.520;6.818;2022-08-01T15:30:41;1.75;;;0.90;;
4527;SDS011;62320;51.520;6.818;2022-08-01T15:35:43;2.58;;;1.10;;
4527;SDS011;62320;51.520;6.818;2022-08-01T15:40:44;2.80;;;1.08;;
4527;SDS011;62320;51.520;6.818;2022-08-01T15:45:46;5.13;;;1.50;;
4527;SDS011;62320;51.520;6.818;2022-08-01T15:50:49;1.60;;;1.33;;
4527;SDS011;62320;51.520;6.818;2022-08-01T15:55:51;2.47;;;1.50;;
4527;SDS011;62320;51.520;6.818;2022-08-01T16:00:53;2.72;;;1.42;;
4527;SDS011;62320;51.520;6.818;2022-08-01T16:05:54;1.67;;;1.30;;
4527;SDS011;62320;51.520;6.818;2022-08-01T16:10:56;3.95;;;1.80;;
4527;SDS011;62320;51.520;6.818;2022-08-01T16:15:57;1.50;;;1.40;;
4527;SDS011;62320;51.520;6.818;2022-08-01T16:21:00;2.47;;;1.42;;
4527;SDS011;62320;51.520;6.818;2022-08-01T16:26:02;1.77;;;1.45;;
4527;SDS011;62320;51.520;6.818;2022-08-01T16:31:03;3.13;;;2.13;;
4527;SDS011;62320;51.520;6.818;2022-08-01T16:36:25;4.20;;;2.50;;
4527;SDS011;62320;51.520;6.818;2022-08-01T16:41:26;3.20;;;1.45;;
4527;SDS011;62320;51.520;6.818;2022-08-01T16:46:28;2.40;;;1.67;;
4527;SDS011;62320;51.520;6.818;2022-08-01T16:51:29;7.10;;;1.50;;
4527;SDS011;62320;51.520;6.818;2022-08-01T16:56:32;2.85;;;1.65;;
4527;SDS011;62320;51.520;6.818;2022-08-01T17:01:34;2.05;;;1.20;;
4527;SDS011;62320;51.520;6.818;2022-08-01T17:06:56;4.00;;;1.70;;
4527;SDS011;62320;51.520;6.818;2022-08-01T17:11:58;3.13;;;1.50;;
4527;SDS011;62320;51.520;6.818;2022-08-01T17:16:59;2.60;;;1.48;;
4527;SDS011;62320;51.520;6.818;2022-08-01T17:22:00;2.85;;;1.50;;
4527;SDS011;62320;51.520;6.818;2022-08-01T17:27:02;2.40;;;1.40;;
4527;SDS011;62320;51.520;6.818;2022-08-01T17:32:06;2.38;;;1.60;;
4527;SDS011;62320;51.520;6.818;2022-08-01T17:37:08;3.20;;;1.80;;
4527;SDS011;62320;51.520;6.818;2022-08-01T17:42:10;5.20;;;1.90;;
4527;SDS011;62320;51.520;6.818;2022-08-01T17:47:12;4.78;;;1.70;;
4527;SDS011;62320;51.520;6.818;2022-08-01T17:52:34;4.82;;;2.10;;
4527;SDS011;62320;51.520;6.818;2022-08-01T17:57:35;4.88;;;1.67;;
4527;SDS011;62320;51.520;6.818;2022-08-01T18:02:37;2.78;;;1.40;;
4527;SDS011;62320;51.520;6.818;2022-08-01T18:07:39;2.97;;;1.70;;
4527;SDS011;62320;51.520;6.818;2022-08-01T18:13:01;3.22;;;1.77;;
4527;SDS011;62320;51.520;6.818;2022-08-01T18:18:03;5.30;;;1.60;;
4527;SDS011;62320;51.520;6.818;2022-08-01T18:23:05;6.05;;;2.00;;
4527;SDS011;62320;51.520;6.818;2022-08-01T18:28:10;5.68;;;1.88;;
4527;SDS011;62320;51.520;6.818;2022-08-01T18:33:31;3.78;;;1.40;;
4527;SDS011;62320;51.520;6.818;2022-08-01T18:38:32;2.70;;;1.58;;
4527;SDS011;62320;51.520;6.818;2022-08-01T18:43:39;4.88;;;1.65;;
4527;SDS011;62320;51.520;6.818;2022-08-01T18:48:40;4.55;;;1.70;;
4527;SDS011;62320;51.520;6.818;2022-08-01T18:53:42;6.03;;;1.90;;
4527;SDS011;62320;51.520;6.818;2022-08-01T18:58:47;3.88;;;1.80;;
4527;SDS011;62320;51.520;6.818;2022-08-01T19:03:48;3.75;;;1.73;;
4527;SDS011;62320;51.520;6.818;2022-08-01T19:08:50;4.53;;;2.13;;
4527;SDS011;62320;51.520;6.818;2022-08-01T19:13:57;3.40;;;1.80;;
4527;SDS011;62320;51.520;6.818;2022-08-01T19:18:59;5.57;;;1.90;;
4527;SDS011;62320;51.520;6.818;2022-08-01T19:24:05;4.75;;;1.80;;
4527;SDS011;62320;51.520;6.818;2022-08-01T19:29:25;3.72;;;1.77;;
4527;SDS011;62320;51.520;6.818;2022-08-01T19:34:41;4.38;;;1.60;;
4527;SDS011;62320;51.520;6.818;2022-08-01T19:39:49;3.90;;;1.83;;
4527;SDS011;62320;51.520;6.818;2022-08-01T19:44:51;5.43;;;2.20;;
4527;SDS011;62320;51.520;6.818;2022-08-01T19:49:54;4.93;;;2.03;;
4527;SDS011;62320;51.520;6.818;2022-08-01T19:54:55;6.05;;;2.15;;
4527;SDS011;62320;51.520;6.818;2022-08-01T19:59:58;4.00;;;2.00;;
4527;SDS011;62320;51.520;6.818;2022-08-01T20:05:02;4.15;;;2.50;;
4527;SDS011;62320;51.520;6.818;2022-08-01T20:10:03;5.60;;;2.10;;
4527;SDS011;62320;51.520;6.818;2022-08-01T20:15:05;5.13;;;2.30;;
4527;SDS011;62320;51.520;6.818;2022-08-01T20:20:08;6.53;;;2.10;;
4527;SDS011;62320;51.520;6.818;2022-08-01T20:25:10;4.30;;;2.00;;
4527;SDS011;62320;51.520;6.818;2022-08-01T20:30:12;5.03;;;2.10;;
4527;SDS011;62320;51.520;6.818;2022-08-01T20:35:14;3.38;;;2.15;;
4527;SDS011;62320;51.520;6.818;2022-08-01T20:40:16;4.18;;;2.00;;
4527;SDS011;62320;51.520;6.818;2022-08-01T20:45:25;3.95;;;2.00;;
4527;SDS011;62320;51.520;6.818;2022-08-01T20:50:27;3.70;;;2.20;;
4527;SDS011;62320;51.520;6.818;2022-08-01T21:01:29;4.87;;;2.20;;
4527;SDS011;62320;51.520;6.818;2022-08-01T21:06:40;4.20;;;1.73;;
4527;SDS011;62320;51.520;6.818;2022-08-01T21:11:49;6.18;;;2.40;;
4527;SDS011;62320;51.520;6.818;2022-08-01T21:16:58;4.55;;;2.20;;
4527;SDS011;62320;51.520;6.818;2022-08-01T21:22:07;6.25;;;2.42;;
4527;SDS011;62320;51.520;6.818;2022-08-01T21:27:13;5.28;;;2.33;;
4527;SDS011;62320;51.520;6.818;2022-08-01T21:32:17;5.75;;;2.50;;
4527;SDS011;62320;51.520;6.818;2022-08-01T21:37:22;4.82;;;2.30;;
4527;SDS011;62320;51.520;6.818;2022-08-01T21:42:24;4.85;;;2.65;;
4527;SDS011;62320;51.520;6.818;2022-08-01T21:47:28;3.05;;;2.15;;
4527;SDS011;62320;51.520;6.818;2022-08-01T21:52:33;7.25;;;2.40;;
4527;SDS011;62320;51.520;6.818;2022-08-01T22:08:28;4.35;;;2.50;;
4527;SDS011;62320;51.520;6.818;2022-08-01T22:13:37;2.97;;;2.00;;
4527;SDS011;62320;51.520;6.818;2022-08-01T22:18:38;3.50;;;2.05;;
4527;SDS011;62320;51.520;6.818;2022-08-01T22:23:40;4.18;;;2.40;;
4527;SDS011;62320;51.520;6.818;2022-08-01T22:28:42;3.85;;;2.15;;
4527;SDS011;62320;51.520;6.818;2022-08-01T22:33:45;7.20;;;2.08;;
4527;SDS011;62320;51.520;6.818;2022-08-01T22:38:47;4.68;;;2.05;;
4527;SDS011;62320;51.520;6.818;2022-08-01T22:48:55;3.05;;;2.22;;
4527;SDS011;62320;51.520;6.818;2022-08-01T22:54:05;4.05;;;2.33;;
4527;SDS011;62320;51.520;6.818;2022-08-01T22:59:13;5.30;;;2.67;;
4527;SDS011;62320;51.520;6.818;2022-08-01T23:04:20;4.50;;;2.83;;
4527;SDS011;62320;51.520;6.818;2022-08-01T23:09:34;5.82;;;2.75;;
4527;SDS011;62320;51.520;6.818;2022-08-01T23:14:55;8.47;;;2.80;;
4527;SDS011;62320;51.520;6.818;2022-08-01T23:20:01;4.20;;;2.70;;
4527;SDS011;62320;51.520;6.818;2022-08-01T23:25:06;5.63;;;2.53;;
4527;SDS011;62320;51.520;6.818;2022-08-01T23:30:13;6.50;;;2.47;;
4527;SDS011;62320;51.520;6.818;2022-08-01T23:35:14;4.07;;;2.50;;
4527;SDS011;62320;51.520;6.818;2022-08-01T23:40:16;4.55;;;2.85;;
4527;SDS011;62320;51.520;6.818;2022-08-01T23:45:18;6.15;;;2.70;;
4527;SDS011;62320;51.520;6.818;2022-08-01T23:50:21;6.90;;;2.70;;
4527;SDS011;62320;51.520;6.818;2022-08-01T23:55:22;4.82;;;2.60;;
